createdAt,value
2018-08-30T00:01:44.797Z,15.47
2018-08-30T00:04:12.849Z,15.93
2018-08-30T00:06:40.944Z,11.00
2018-08-30T00:09:09.113Z,14.10
2018-08-30T00:11:37.192Z,19.40
2018-08-30T00:14:05.254Z,11.97
2018-08-30T00:16:33.287Z,12.67
2018-08-30T00:19:01.337Z,10.73
2018-08-30T00:21:29.472Z,8.53
2018-08-30T00:23:57.631Z,13.20
2018-08-30T00:26:25.728Z,12.03
2018-08-30T00:28:53.793Z,15.33
2018-08-30T00:31:21.876Z,11.73
2018-08-30T00:33:49.915Z,14.53
2018-08-30T00:36:18.008Z,13.67
2018-08-30T00:38:46.082Z,12.87
2018-08-30T00:41:14.183Z,11.73
2018-08-30T00:43:42.200Z,9.77
2018-08-30T00:46:10.248Z,12.27
2018-08-30T00:48:38.279Z,11.10
2018-08-30T00:51:06.316Z,11.03
2018-08-30T00:53:34.387Z,10.90
2018-08-30T00:56:02.483Z,10.47
2018-08-30T00:58:30.528Z,13.80
2018-08-30T01:00:58.558Z,11.93
2018-08-30T01:03:26.663Z,10.70
2018-08-30T01:05:54.704Z,10.83
2018-08-30T01:08:22.724Z,11.50
2018-08-30T01:10:50.804Z,9.00
2018-08-30T01:13:18.850Z,10.27
2018-08-30T01:15:46.908Z,11.60
2018-08-30T01:18:14.932Z,12.00
2018-08-30T01:20:43.088Z,11.30
2018-08-30T01:23:11.143Z,10.33
2018-08-30T01:25:39.155Z,12.40
2018-08-30T01:28:07.192Z,12.63
2018-08-30T01:30:35.265Z,9.90
2018-08-30T01:33:03.323Z,11.27
2018-08-30T01:35:31.349Z,15.37
2018-08-30T01:37:59.443Z,14.73
2018-08-30T01:40:27.555Z,10.57
2018-08-30T01:42:55.610Z,11.23
2018-08-30T01:45:23.696Z,11.80
2018-08-30T01:47:51.772Z,12.27
2018-08-30T01:50:19.831Z,10.60
2018-08-30T01:52:47.887Z,10.47
2018-08-30T01:55:15.979Z,14.60
2018-08-30T01:57:44.046Z,12.10
2018-08-30T02:00:12.075Z,10.27
2018-08-30T02:02:40.166Z,14.70
2018-08-30T02:05:08.182Z,10.87
2018-08-30T02:07:36.215Z,11.73
2018-08-30T02:10:04.267Z,13.43
2018-08-30T02:12:32.346Z,15.10
2018-08-30T02:15:00.384Z,14.70
2018-08-30T02:17:28.486Z,10.10
2018-08-30T02:19:56.546Z,10.23
2018-08-30T02:22:24.611Z,9.20
2018-08-30T02:24:52.671Z,13.53
2018-08-30T02:27:20.699Z,9.63
2018-08-30T02:29:48.835Z,13.70
2018-08-30T02:32:16.903Z,11.23
2018-08-30T02:34:44.990Z,8.40
2018-08-30T02:37:13.259Z,10.50
2018-08-30T02:39:41.355Z,15.03
2018-08-30T02:42:09.434Z,8.00
2018-08-30T02:44:37.571Z,11.30
2018-08-30T02:47:05.642Z,12.50
2018-08-30T02:49:33.734Z,12.60
2018-08-30T02:52:01.805Z,11.73
2018-08-30T02:54:30.059Z,8.63
2018-08-30T02:56:58.123Z,9.50
2018-08-30T02:59:26.214Z,9.63
2018-08-30T03:01:54.263Z,8.10
2018-08-30T03:04:22.368Z,8.57
2018-08-30T03:06:50.431Z,11.37
2018-08-30T03:09:18.466Z,15.53
2018-08-30T03:11:46.490Z,8.47
2018-08-30T03:14:14.551Z,11.00
2018-08-30T03:16:42.863Z,6.60
2018-08-30T03:19:10.904Z,6.33
2018-08-30T03:21:38.932Z,11.33
2018-08-30T03:24:06.982Z,8.53
2018-08-30T03:26:35.026Z,9.30
2018-08-30T03:29:03.056Z,8.10
2018-08-30T03:31:31.302Z,6.47
2018-08-30T03:33:59.346Z,11.50
2018-08-30T03:36:27.476Z,10.60
2018-08-30T03:38:55.513Z,10.73
2018-08-30T03:41:23.556Z,10.80
2018-08-30T03:43:51.588Z,11.23
2018-08-30T03:46:19.629Z,7.90
2018-08-30T03:48:47.709Z,7.57
2018-08-30T03:51:15.743Z,6.13
2018-08-30T03:53:43.847Z,10.63
2018-08-30T03:56:11.946Z,7.87
2018-08-30T03:58:39.979Z,8.80
2018-08-30T04:01:08.474Z,8.80
2018-08-30T04:03:36.539Z,8.97
2018-08-30T04:06:04.618Z,6.07
2018-08-30T04:08:32.687Z,8.80
2018-08-30T04:11:00.728Z,10.00
2018-08-30T04:13:28.985Z,10.57
2018-08-30T04:15:56.987Z,12.50
2018-08-30T04:18:25.075Z,9.67
2018-08-30T04:20:53.168Z,10.60
2018-08-30T04:23:21.218Z,13.57
2018-08-30T04:25:49.304Z,8.70
2018-08-30T04:28:17.368Z,10.17
2018-08-30T04:30:45.448Z,8.03
2018-08-30T04:33:13.514Z,8.87
2018-08-30T04:35:41.678Z,15.37
2018-08-30T04:38:09.710Z,9.43
2018-08-30T04:40:37.751Z,5.67
2018-08-30T04:43:05.786Z,6.57
2018-08-30T04:45:33.995Z,11.43
2018-08-30T04:48:02.159Z,10.53
2018-08-30T04:50:30.381Z,10.70
2018-08-30T04:52:58.499Z,7.23
2018-08-30T04:55:26.580Z,4.77
2018-08-30T04:57:54.739Z,7.40
2018-08-30T05:00:22.779Z,8.87
2018-08-30T05:02:50.798Z,9.40
2018-08-30T05:05:18.851Z,7.97
2018-08-30T05:07:46.948Z,8.07
2018-08-30T05:10:15.042Z,11.17
2018-08-30T05:12:43.477Z,6.53
2018-08-30T05:15:11.507Z,8.27
2018-08-30T05:17:39.558Z,7.87
2018-08-30T05:20:07.691Z,5.67
2018-08-30T05:22:35.775Z,9.40
2018-08-30T05:25:03.883Z,7.57
2018-08-30T05:27:31.923Z,6.27
2018-08-30T05:29:59.990Z,8.17
2018-08-30T05:32:28.039Z,9.57
2018-08-30T05:34:56.066Z,8.57
2018-08-30T05:37:24.137Z,11.80
2018-08-30T05:39:52.268Z,11.20
2018-08-30T05:42:20.298Z,7.13
2018-08-30T05:44:48.414Z,7.77
2018-08-30T05:47:16.474Z,8.70
2018-08-30T05:49:44.512Z,8.03
2018-08-30T05:52:12.542Z,6.17
2018-08-30T05:54:40.746Z,5.93
2018-08-30T05:57:08.781Z,9.93
2018-08-30T05:59:36.839Z,5.87
2018-08-30T06:02:05.130Z,7.13
2018-08-30T06:04:33.198Z,8.93
2018-08-30T06:07:01.243Z,7.87
2018-08-30T06:09:29.290Z,6.03
2018-08-30T06:11:57.355Z,8.37
2018-08-30T06:14:25.374Z,9.70
2018-08-30T06:16:53.428Z,8.03
2018-08-30T06:19:21.525Z,8.63
2018-08-30T06:21:49.576Z,9.30
2018-08-30T06:24:17.663Z,8.77
2018-08-30T06:26:45.773Z,6.70
2018-08-30T06:29:13.860Z,5.17
2018-08-30T06:31:41.877Z,8.43
2018-08-30T06:34:09.936Z,9.47
2018-08-30T06:36:38.009Z,9.47
2018-08-30T06:39:06.514Z,5.13
2018-08-30T06:41:34.547Z,6.33
2018-08-30T06:44:02.871Z,12.87
2018-08-30T06:46:31.021Z,5.63
2018-08-30T06:48:59.089Z,8.60
2018-08-30T06:51:27.260Z,6.20
2018-08-30T06:53:55.287Z,9.10
2018-08-30T06:56:23.523Z,8.27
2018-08-30T06:58:51.476Z,6.07
2018-08-30T07:01:19.494Z,7.23
2018-08-30T07:03:47.621Z,6.87
2018-08-30T07:06:15.638Z,5.70
2018-08-30T07:08:43.690Z,8.47
2018-08-30T07:11:11.818Z,6.87
2018-08-30T07:13:39.860Z,7.43
2018-08-30T07:16:08.176Z,7.57
2018-08-30T07:18:36.247Z,8.07
2018-08-30T07:21:04.331Z,5.63
2018-08-30T07:23:32.503Z,8.50
2018-08-30T07:26:00.556Z,9.90
2018-08-30T07:28:28.650Z,8.23
2018-08-30T07:30:56.699Z,6.00
2018-08-30T07:33:24.725Z,3.40
2018-08-30T07:35:52.846Z,7.43
2018-08-30T07:38:20.876Z,8.90
2018-08-30T07:40:48.912Z,6.30
2018-08-30T07:43:16.956Z,3.60
2018-08-30T07:45:45.020Z,9.03
2018-08-30T07:48:13.061Z,7.60
2018-08-30T07:50:41.082Z,4.17
2018-08-30T07:53:09.151Z,6.80
2018-08-30T07:55:37.240Z,5.30
2018-08-30T07:58:05.287Z,5.07
2018-08-30T08:00:33.495Z,7.00
2018-08-30T08:03:01.515Z,5.67
2018-08-30T08:05:29.662Z,8.90
2018-08-30T08:07:57.710Z,5.00
2018-08-30T08:10:25.804Z,4.63
2018-08-30T08:12:53.847Z,5.70
2018-08-30T08:15:21.875Z,6.50
2018-08-30T08:17:49.899Z,5.70
2018-08-30T08:20:17.934Z,5.03
2018-08-30T08:22:45.963Z,4.63
2018-08-30T08:25:14.097Z,3.53
2018-08-30T08:27:42.046Z,7.27
2018-08-30T08:30:10.062Z,6.83
2018-08-30T08:32:38.219Z,4.33
2018-08-30T08:35:06.482Z,7.50
2018-08-30T08:37:34.518Z,2.87
2018-08-30T08:40:02.687Z,7.37
2018-08-30T08:42:30.710Z,5.53
2018-08-30T08:44:58.778Z,6.50
2018-08-30T08:47:26.833Z,6.57
2018-08-30T08:49:54.970Z,4.97
2018-08-30T08:52:23.012Z,5.87
2018-08-30T08:54:51.030Z,3.57
2018-08-30T08:57:19.056Z,5.60
2018-08-30T08:59:47.119Z,4.17
2018-08-30T09:02:15.147Z,5.17
2018-08-30T09:04:43.256Z,7.53
2018-08-30T09:07:11.471Z,6.23
2018-08-30T09:09:39.403Z,6.13
2018-08-30T09:12:07.478Z,8.70
2018-08-30T09:14:35.579Z,4.07
2018-08-30T09:17:03.723Z,6.00
2018-08-30T09:19:31.756Z,4.93
2018-08-30T09:21:59.858Z,4.47
2018-08-30T09:24:27.931Z,5.37
2018-08-30T09:26:56.037Z,6.60
2018-08-30T09:29:24.343Z,3.73
2018-08-30T09:31:52.401Z,4.93
2018-08-30T09:34:20.452Z,4.70
2018-08-30T09:36:48.510Z,7.13
2018-08-30T09:39:16.547Z,5.23
2018-08-30T09:41:44.596Z,3.67
2018-08-30T09:44:12.623Z,5.10
2018-08-30T09:46:40.632Z,6.43
2018-08-30T09:49:08.655Z,6.70
2018-08-30T09:51:36.729Z,4.50
2018-08-30T09:54:04.760Z,12.10
2018-08-30T09:56:32.870Z,5.80
2018-08-30T09:59:00.947Z,5.20
2018-08-30T10:01:34.402Z,6.37
2018-08-30T10:04:02.441Z,5.40
2018-08-30T10:06:30.490Z,5.23
2018-08-30T10:08:58.985Z,4.43
2018-08-30T10:11:27.132Z,2.93
2018-08-30T10:13:55.206Z,5.57
2018-08-30T10:16:23.306Z,3.30
2018-08-30T10:18:51.355Z,5.70
2018-08-30T10:21:19.391Z,5.10
2018-08-30T10:23:47.407Z,3.37
2018-08-30T10:26:15.482Z,3.63
2018-08-30T10:28:43.552Z,4.03
2018-08-30T10:31:11.619Z,3.93
2018-08-30T10:33:39.658Z,3.90
2018-08-30T10:36:07.688Z,8.23
2018-08-30T10:38:35.723Z,3.90
2018-08-30T10:41:03.782Z,7.77
2018-08-30T10:43:31.795Z,6.23
2018-08-30T10:45:59.834Z,9.20
2018-08-30T10:48:27.900Z,4.73
2018-08-30T10:50:55.957Z,4.30
2018-08-30T10:53:24.801Z,5.27
2018-08-30T10:55:52.864Z,6.33
2018-08-30T10:58:20.927Z,5.23
2018-08-30T11:00:48.954Z,5.17
2018-08-30T11:03:17.028Z,5.07
2018-08-30T11:05:45.044Z,5.37
2018-08-30T11:08:13.194Z,5.73
2018-08-30T11:10:41.388Z,3.23
2018-08-30T11:13:09.669Z,4.63
2018-08-30T11:15:37.631Z,4.87
2018-08-30T11:18:05.719Z,4.27
2018-08-30T11:20:33.899Z,7.53
2018-08-30T11:23:01.994Z,5.50
2018-08-30T11:25:30.137Z,5.87
2018-08-30T11:27:58.277Z,6.13
2018-08-30T11:30:26.458Z,7.13
2018-08-30T11:32:54.487Z,4.93
2018-08-30T11:35:22.602Z,4.13
2018-08-30T11:37:50.651Z,4.80
2018-08-30T11:40:18.751Z,6.60
2018-08-30T11:42:46.799Z,6.60
2018-08-30T11:45:14.846Z,3.43
2018-08-30T11:47:42.887Z,6.43
2018-08-30T11:50:10.936Z,3.73
2018-08-30T11:52:39.272Z,4.80
2018-08-30T11:55:07.539Z,5.57
2018-08-30T11:57:35.847Z,3.83
2018-08-30T12:00:04.167Z,4.23
2018-08-30T12:02:33.455Z,4.17
2018-08-30T12:05:02.394Z,6.27
2018-08-30T12:07:30.691Z,2.80
2018-08-30T12:09:59.012Z,4.60
2018-08-30T12:12:27.330Z,5.33
2018-08-30T12:14:55.653Z,2.93
2018-08-30T12:17:23.949Z,5.40
2018-08-30T12:19:52.307Z,6.57
2018-08-30T12:22:20.613Z,4.60
2018-08-30T12:24:49.551Z,4.80
2018-08-30T12:27:17.887Z,3.10
2018-08-30T12:29:46.207Z,4.70
2018-08-30T12:32:14.560Z,5.67
2018-08-30T12:34:42.925Z,3.13
2018-08-30T12:37:11.268Z,4.23
2018-08-30T12:39:39.605Z,4.40
2018-08-30T12:42:07.601Z,5.77
2018-08-30T12:44:35.699Z,4.30
2018-08-30T12:47:03.860Z,7.50
2018-08-30T12:49:31.938Z,3.03
2018-08-30T12:51:59.974Z,2.70
2018-08-30T12:54:28.133Z,4.50
2018-08-30T12:56:56.155Z,7.43
2018-08-30T12:59:39.521Z,5.17
2018-08-30T13:02:07.669Z,5.37
2018-08-30T13:04:35.969Z,5.57
2018-08-30T13:07:03.936Z,3.67
2018-08-30T13:09:32.003Z,6.77
2018-08-30T13:12:00.857Z,9.47
2018-08-30T13:14:29.352Z,4.37
2018-08-30T13:16:58.160Z,4.17
2018-08-30T13:19:26.904Z,4.80
2018-08-30T13:21:55.131Z,5.83
2018-08-30T13:24:23.398Z,3.43
2018-08-30T13:26:51.758Z,3.53
2018-08-30T13:29:20.042Z,4.63
2018-08-30T13:31:48.538Z,4.00
2018-08-30T13:34:16.984Z,5.30
2018-08-30T13:36:44.932Z,5.07
2018-08-30T13:39:13.623Z,3.87
2018-08-30T13:41:42.189Z,5.10
2018-08-30T13:44:11.247Z,2.87
2018-08-30T13:46:40.369Z,1.97
2018-08-30T13:49:08.571Z,4.33
2018-08-30T13:51:36.634Z,3.80
2018-08-30T13:54:04.916Z,3.53
2018-08-30T13:56:32.935Z,3.23
2018-08-30T13:59:01.323Z,4.73
2018-08-30T14:01:29.685Z,6.50
2018-08-30T14:03:57.277Z,4.83
2018-08-30T14:06:25.234Z,6.23
2018-08-30T14:08:53.517Z,3.80
2018-08-30T14:11:21.552Z,5.63
2018-08-30T14:13:49.655Z,2.47
2018-08-30T14:16:17.474Z,3.17
2018-08-30T14:18:45.618Z,7.30
2018-08-30T14:21:13.684Z,2.23
2018-08-30T14:23:41.703Z,5.43
2018-08-30T14:26:09.750Z,3.20
2018-08-30T14:28:37.910Z,3.80
2018-08-30T14:31:05.990Z,3.17
2018-08-30T14:33:34.049Z,3.90
2018-08-30T14:36:02.107Z,3.70
2018-08-30T14:38:30.266Z,5.60
2018-08-30T14:40:58.277Z,5.23
2018-08-30T14:43:26.733Z,6.73
2018-08-30T14:45:56.046Z,4.80
2018-08-30T14:48:24.096Z,3.40
2018-08-30T14:50:52.400Z,3.07
2018-08-30T14:53:20.492Z,3.90
2018-08-30T14:55:49.007Z,3.50
2018-08-30T14:58:19.081Z,6.23
2018-08-30T15:04:00.235Z,3.87
2018-08-30T15:06:32.555Z,3.23
2018-08-30T15:09:00.712Z,3.33
2018-08-30T15:11:28.942Z,3.27
2018-08-30T15:13:56.811Z,7.63
2018-08-30T15:16:25.030Z,3.07
2018-08-30T15:18:53.152Z,4.67
2018-08-30T15:21:21.332Z,2.17
2018-08-30T15:23:49.416Z,2.67
2018-08-30T15:26:17.744Z,4.43
2018-08-30T15:28:45.839Z,3.47
2018-08-30T15:31:13.971Z,5.33
2018-08-30T15:33:42.146Z,2.53
2018-08-30T15:36:10.367Z,3.73
2018-08-30T15:38:38.760Z,5.17
2018-08-30T15:41:07.236Z,6.30
2018-08-30T15:43:35.654Z,4.83
2018-08-30T15:46:05.300Z,4.57
2018-08-30T15:48:33.363Z,3.07
2018-08-30T15:51:01.547Z,3.13
2018-08-30T15:53:30.680Z,2.70
2018-08-30T15:55:58.798Z,3.80
2018-08-30T15:58:27.463Z,3.47
2018-08-30T16:00:55.649Z,4.80
2018-08-30T16:03:23.667Z,5.63
2018-08-30T16:05:51.858Z,6.17
2018-08-30T16:08:20.111Z,2.50
2018-08-30T16:10:48.223Z,6.20
2018-08-30T16:13:16.263Z,4.87
2018-08-30T16:15:44.275Z,4.43
2018-08-30T16:18:12.320Z,5.60
2018-08-30T16:20:40.342Z,3.07
2018-08-30T16:23:08.670Z,4.12
2018-08-30T16:25:36.648Z,6.43
2018-08-30T16:28:05.416Z,3.20
2018-08-30T16:30:33.489Z,3.43
2018-08-30T16:33:01.515Z,4.20
2018-08-30T16:35:29.560Z,3.97
2018-08-30T16:37:57.655Z,3.73
2018-08-30T16:40:25.802Z,3.80
2018-08-30T16:42:53.855Z,3.87
2018-08-30T16:45:21.920Z,4.03
2018-08-30T16:47:49.991Z,4.27
2018-08-30T16:50:18.099Z,7.07
2018-08-30T16:52:46.158Z,5.23
2018-08-30T16:55:14.215Z,3.20
2018-08-30T16:57:42.263Z,4.23
2018-08-30T17:00:10.278Z,3.83
2018-08-30T17:02:38.306Z,6.33
2018-08-30T17:05:06.379Z,5.03
2018-08-30T17:07:34.422Z,4.27
2018-08-30T17:10:02.574Z,5.30
2018-08-30T17:12:30.634Z,3.87
2018-08-30T17:14:58.706Z,4.83
2018-08-30T17:17:27.520Z,5.13
2018-08-30T17:19:55.502Z,4.63
2018-08-30T17:22:23.541Z,2.57
2018-08-30T17:24:51.572Z,2.83
2018-08-30T17:27:19.704Z,4.20
2018-08-30T17:29:47.779Z,5.27
2018-08-30T17:32:15.807Z,3.57
2018-08-30T17:34:44.117Z,6.37
2018-08-30T17:37:12.244Z,5.20
2018-08-30T17:39:40.251Z,5.03
2018-08-30T17:42:08.325Z,3.60
2018-08-30T17:44:36.380Z,6.10
2018-08-30T17:47:04.411Z,6.37
2018-08-30T17:49:32.455Z,4.17
2018-08-30T17:52:00.495Z,5.43
2018-08-30T17:54:28.596Z,3.23
2018-08-30T17:56:56.655Z,2.60
2018-08-30T17:59:24.754Z,5.20
2018-08-30T18:01:52.860Z,3.20
2018-08-30T18:04:20.875Z,4.13
2018-08-30T18:06:49.049Z,3.00
2018-08-30T18:09:16.956Z,4.40
2018-08-30T18:11:45.028Z,2.33
2018-08-30T18:14:13.089Z,6.80
2018-08-30T18:16:41.164Z,6.47
2018-08-30T18:19:09.227Z,4.30
2018-08-30T18:21:37.250Z,5.17
2018-08-30T18:24:05.445Z,5.10
2018-08-30T18:26:33.577Z,3.03
2018-08-30T18:29:01.615Z,4.80
2018-08-30T18:31:30.804Z,4.10
2018-08-30T18:33:58.846Z,4.07
2018-08-30T18:36:27.113Z,4.93
2018-08-30T18:38:55.195Z,5.40
2018-08-30T18:41:23.222Z,3.33
2018-08-30T18:43:51.252Z,3.70
2018-08-30T18:46:19.289Z,3.77
2018-08-30T18:48:47.328Z,4.57
2018-08-30T18:51:15.339Z,3.70
2018-08-30T18:53:43.363Z,5.57
2018-08-30T18:56:11.384Z,4.37
2018-08-30T18:58:39.399Z,4.97
2018-08-30T19:01:07.573Z,3.57
2018-08-30T19:03:35.860Z,3.93
2018-08-30T19:06:03.946Z,5.40
2018-08-30T19:08:32.191Z,3.50
2018-08-30T19:11:00.757Z,6.67
2018-08-30T19:13:29.087Z,8.90
2018-08-30T19:16:02.651Z,5.93
2018-08-30T19:18:36.324Z,2.57
2018-08-30T19:21:04.475Z,4.33
2018-08-30T19:23:33.135Z,4.17
2018-08-30T19:26:01.464Z,5.30
2018-08-30T19:28:29.541Z,2.77
2018-08-30T19:30:57.814Z,6.80
2018-08-30T19:33:26.096Z,5.07
2018-08-30T19:35:59.646Z,4.90
2018-08-30T19:38:27.791Z,4.50
2018-08-30T19:41:01.289Z,5.23
2018-08-30T19:43:29.359Z,4.37
2018-08-30T19:45:57.400Z,3.77
2018-08-30T19:48:25.519Z,4.77
2018-08-30T19:50:53.533Z,4.67
2018-08-30T19:53:21.552Z,4.10
2018-08-30T19:55:49.576Z,5.10
2018-08-30T19:58:17.649Z,3.83
2018-08-30T20:00:45.639Z,4.83
2018-08-30T20:03:13.667Z,6.43
2018-08-30T20:07:11.175Z,6.67
2018-08-30T20:09:39.208Z,5.73
2018-08-30T20:12:07.276Z,4.17
2018-08-30T20:14:35.411Z,5.47
2018-08-30T20:17:03.474Z,6.83
2018-08-30T20:19:31.511Z,7.63
2018-08-30T20:21:59.601Z,6.40
2018-08-30T20:24:27.676Z,6.57
2018-08-30T20:26:55.703Z,5.10
2018-08-30T20:29:24.718Z,7.67
2018-08-30T20:31:52.787Z,7.77
2018-08-30T20:34:21.032Z,7.40
2018-08-30T20:36:49.045Z,5.33
2018-08-30T20:39:17.074Z,6.20
2018-08-30T20:41:45.107Z,10.10
2018-08-30T20:44:13.298Z,7.40
2018-08-30T20:46:41.353Z,9.20
2018-08-30T20:49:09.409Z,9.13
2018-08-30T20:51:37.475Z,8.77
2018-08-30T20:54:05.552Z,11.60
2018-08-30T20:56:33.654Z,11.60
2018-08-30T20:59:01.737Z,10.87
2018-08-30T21:01:29.780Z,11.63
2018-08-30T21:03:57.856Z,9.30
2018-08-30T21:06:25.948Z,6.90
2018-08-30T21:08:54.009Z,7.10
2018-08-30T21:11:22.098Z,7.60
2018-08-30T21:13:50.138Z,9.17
2018-08-30T21:16:18.174Z,7.10
2018-08-30T21:18:46.523Z,7.53
2018-08-30T21:21:14.582Z,6.43
2018-08-30T21:27:13.267Z,6.30
2018-08-30T21:29:41.303Z,6.83
2018-08-30T21:32:09.339Z,6.13
2018-08-30T21:34:37.607Z,6.70
2018-08-30T21:37:05.646Z,7.10
2018-08-30T21:39:33.690Z,8.23
2018-08-30T21:42:01.715Z,8.87
2018-08-30T21:44:29.771Z,7.10
2018-08-30T21:46:57.806Z,7.30
2018-08-30T21:49:25.849Z,7.23
2018-08-30T21:51:53.920Z,11.97
2018-08-30T21:54:21.957Z,7.70
2018-08-30T21:56:50.035Z,6.10
2018-08-30T21:59:18.051Z,8.77
2018-08-30T22:01:46.087Z,5.90
2018-08-30T22:04:14.132Z,6.53
2018-08-30T22:06:42.146Z,8.07
2018-08-30T22:09:11.387Z,6.23
2018-08-30T22:11:39.521Z,4.93
2018-08-30T22:14:07.702Z,6.10
2018-08-30T22:16:35.843Z,8.60
2018-08-30T22:19:03.859Z,5.17
2018-08-30T22:21:31.912Z,5.97
2018-08-30T22:23:59.923Z,4.00
2018-08-30T22:26:27.959Z,8.23
2018-08-30T22:28:55.994Z,7.40
2018-08-30T22:31:24.035Z,4.10
2018-08-30T22:33:52.080Z,6.33
2018-08-30T22:36:20.171Z,6.73
2018-08-30T22:38:48.213Z,4.20
2018-08-30T22:41:16.242Z,9.93
2018-08-30T22:43:44.287Z,7.47
2018-08-30T22:46:12.302Z,7.10
2018-08-30T22:48:40.329Z,6.27
2018-08-30T22:51:08.410Z,9.33
2018-08-30T22:53:36.432Z,8.23
2018-08-30T22:56:04.532Z,7.23
2018-08-30T22:58:32.611Z,8.13
2018-08-30T23:01:00.632Z,8.03
2018-08-30T23:03:28.673Z,8.00
2018-08-30T23:05:56.739Z,9.73
2018-08-30T23:08:24.762Z,7.23
2018-08-30T23:10:53.692Z,6.57
2018-08-30T23:13:21.714Z,8.37
2018-08-30T23:15:49.747Z,7.57
2018-08-30T23:18:17.820Z,6.33
2018-08-30T23:20:45.818Z,6.23
2018-08-30T23:23:13.856Z,6.17
2018-08-30T23:25:41.900Z,7.00
2018-08-30T23:28:09.908Z,5.90
2018-08-30T23:30:38.043Z,9.03
2018-08-30T23:33:06.003Z,9.70
2018-08-30T23:35:34.004Z,6.73
2018-08-30T23:38:02.032Z,5.13
2018-08-30T23:40:30.038Z,6.47
2018-08-30T23:42:58.054Z,8.87
2018-08-30T23:45:26.079Z,7.53
2018-08-30T23:47:54.095Z,5.73
2018-08-30T23:50:22.106Z,6.80
2018-08-30T23:52:50.115Z,6.93
2018-08-30T23:55:18.136Z,7.00
2018-08-30T23:57:51.780Z,4.40
